ADDS METAR Data INFO
IDs: Format: Raw Decoded Include TAF

Data at: 1749 UTC 24 Mar 2017

EGBB 241720Z 06010KT CAVOK 11/05 Q1031

EGBE 241720Z 05012KT 9999 FEW029 12/07 Q1031

EGBJ 241720Z 06008KT CAVOK 13/06 Q1030

EGVN 241650Z 05014KT 9999 FEW032 12/04 Q1029 BLU NOSIG

EGTK 241720Z 06012KT 030V090 CAVOK 12/06 Q1029

No METAR found for EGWC


Page loaded:  17:49 UTC  |   10:49 AM Pacific  |   11:49 AM Mountain  |   12:49 PM Central  |   01:49 PM Eastern

 

ADVISORIES

FORECASTS

FORECASTS

OBSERVATIONS

USER TOOLS

ABOUT US